sensor_id;sensor_type;location;lat;lon;timestamp;pressure;altitude;pressure_sealevel;temperature;humidity
52653;BME280;39353;42.864;12.014;2023-04-29T00:00:12;97631.41;;;22.20;51.58
52653;BME280;39353;42.864;12.014;2023-04-29T00:02:53;97629.11;;;22.19;51.37
52653;BME280;39353;42.864;12.014;2023-04-29T00:05:35;97631.17;;;22.19;51.55
52653;BME280;39353;42.864;12.014;2023-04-29T00:08:03;97628.27;;;22.19;51.48
52653;BME280;39353;42.864;12.014;2023-04-29T00:10:30;97626.09;;;22.19;51.52
52653;BME280;39353;42.864;12.014;2023-04-29T00:13:12;97626.85;;;22.18;51.53
52653;BME280;39353;42.864;12.014;2023-04-29T00:15:40;97623.67;;;22.18;51.62
52653;BME280;39353;42.864;12.014;2023-04-29T00:18:08;97617.47;;;22.18;51.65
52653;BME280;39353;42.864;12.014;2023-04-29T00:20:39;97618.91;;;22.18;51.51
52653;BME280;39353;42.864;12.014;2023-04-29T00:23:06;97614.13;;;22.17;51.47
52653;BME280;39353;42.864;12.014;2023-04-29T00:25:48;97608.88;;;22.17;51.53
52653;BME280;39353;42.864;12.014;2023-04-29T00:28:18;97606.73;;;22.16;51.60
52653;BME280;39353;42.864;12.014;2023-04-29T00:30:47;97604.42;;;22.16;51.61
52653;BME280;39353;42.864;12.014;2023-04-29T00:33:28;97606.87;;;22.15;51.66
52653;BME280;39353;42.864;12.014;2023-04-29T00:35:56;97608.86;;;22.14;51.73
52653;BME280;39353;42.864;12.014;2023-04-29T00:38:38;97608.50;;;22.13;51.53
52653;BME280;39353;42.864;12.014;2023-04-29T00:41:20;97609.98;;;22.13;51.60
52653;BME280;39353;42.864;12.014;2023-04-29T00:44:02;97611.33;;;22.13;51.72
52653;BME280;39353;42.864;12.014;2023-04-29T00:46:30;97609.34;;;22.11;51.71
52653;BME280;39353;42.864;12.014;2023-04-29T00:48:59;97607.95;;;22.11;51.69
52653;BME280;39353;42.864;12.014;2023-04-29T00:51:27;97610.81;;;22.11;51.48
52653;BME280;39353;42.864;12.014;2023-04-29T00:53:55;97607.89;;;22.10;51.57
52653;BME280;39353;42.864;12.014;2023-04-29T00:56:22;97610.12;;;22.10;51.58
52653;BME280;39353;42.864;12.014;2023-04-29T00:58:50;97604.36;;;22.09;51.52
52653;BME280;39353;42.864;12.014;2023-04-29T01:01:32;97601.77;;;22.08;51.68
52653;BME280;39353;42.864;12.014;2023-04-29T01:04:15;97599.92;;;22.09;51.57
52653;BME280;39353;42.864;12.014;2023-04-29T01:18:34;97588.00;;;22.10;51.74
52653;BME280;39353;42.864;12.014;2023-04-29T01:21:03;97587.91;;;22.11;51.75
52653;BME280;39353;42.864;12.014;2023-04-29T01:23:34;97582.55;;;22.11;51.66
52653;BME280;39353;42.864;12.014;2023-04-29T01:26:16;97575.23;;;22.12;51.66
52653;BME280;39353;42.864;12.014;2023-04-29T01:32:14;97571.09;;;22.11;51.64
52653;BME280;39353;42.864;12.014;2023-04-29T01:41:14;97575.27;;;22.09;51.62
52653;BME280;39353;42.864;12.014;2023-04-29T01:44:01;97576.09;;;22.08;51.73
52653;BME280;39353;42.864;12.014;2023-04-29T01:46:31;97574.24;;;22.07;51.83
52653;BME280;39353;42.864;12.014;2023-04-29T01:48:59;97571.40;;;22.07;51.90
52653;BME280;39353;42.864;12.014;2023-04-29T01:51:41;97568.69;;;22.06;51.73
52653;BME280;39353;42.864;12.014;2023-04-29T01:54:09;97567.47;;;22.05;51.79
52653;BME280;39353;42.864;12.014;2023-04-29T01:56:37;97568.38;;;22.04;51.73
52653;BME280;39353;42.864;12.014;2023-04-29T01:59:17;97571.40;;;22.03;51.76
52653;BME280;39353;42.864;12.014;2023-04-29T02:01:54;97571.70;;;22.02;51.79
52653;BME280;39353;42.864;12.014;2023-04-29T02:04:40;97565.23;;;22.02;51.89
52653;BME280;39353;42.864;12.014;2023-04-29T02:07:22;97560.42;;;22.01;51.85
52653;BME280;39353;42.864;12.014;2023-04-29T02:09:50;97555.27;;;22.00;51.93
52653;BME280;39353;42.864;12.014;2023-04-29T02:12:22;97550.98;;;22.00;51.94
52653;BME280;39353;42.864;12.014;2023-04-29T02:15:04;97552.70;;;21.99;51.90
52653;BME280;39353;42.864;12.014;2023-04-29T02:17:33;97552.52;;;21.98;51.86
52653;BME280;39353;42.864;12.014;2023-04-29T02:20:02;97552.30;;;21.98;51.97
52653;BME280;39353;42.864;12.014;2023-04-29T02:22:31;97556.56;;;21.98;51.88
52653;BME280;39353;42.864;12.014;2023-04-29T02:25:12;97557.53;;;21.97;51.97
52653;BME280;39353;42.864;12.014;2023-04-29T02:27:54;97553.48;;;21.96;51.96
52653;BME280;39353;42.864;12.014;2023-04-29T02:30:21;97550.79;;;21.96;52.11
52653;BME280;39353;42.864;12.014;2023-04-29T02:33:04;97542.48;;;21.96;51.97
52653;BME280;39353;42.864;12.014;2023-04-29T02:35:31;97539.26;;;21.94;51.95
52653;BME280;39353;42.864;12.014;2023-04-29T02:37:59;97538.70;;;21.94;51.95
52653;BME280;39353;42.864;12.014;2023-04-29T02:40:41;97536.90;;;21.94;51.90
52653;BME280;39353;42.864;12.014;2023-04-29T02:43:10;97538.80;;;21.93;51.92
52653;BME280;39353;42.864;12.014;2023-04-29T02:45:38;97539.44;;;21.93;51.86
52653;BME280;39353;42.864;12.014;2023-04-29T02:48:06;97533.77;;;21.93;52.00
52653;BME280;39353;42.864;12.014;2023-04-29T02:50:48;97527.85;;;21.92;52.08
52653;BME280;39353;42.864;12.014;2023-04-29T02:53:29;97520.08;;;21.92;52.01
52653;BME280;39353;42.864;12.014;2023-04-29T02:55:58;97520.25;;;21.92;52.24
52653;BME280;39353;42.864;12.014;2023-04-29T02:58:25;97524.96;;;21.91;52.15
52653;BME280;39353;42.864;12.014;2023-04-29T03:01:06;97522.16;;;21.90;52.17
52653;BME280;39353;42.864;12.014;2023-04-29T03:03:33;97521.36;;;21.90;52.11
52653;BME280;39353;42.864;12.014;2023-04-29T03:06:15;97521.58;;;21.89;52.01
52653;BME280;39353;42.864;12.014;2023-04-29T03:08:56;97522.34;;;21.89;52.11
52653;BME280;39353;42.864;12.014;2023-04-29T03:11:38;97521.13;;;21.88;52.05
52653;BME280;39353;42.864;12.014;2023-04-29T03:14:07;97513.11;;;21.87;52.16
52653;BME280;39353;42.864;12.014;2023-04-29T03:16:35;97509.72;;;21.87;52.23
52653;BME280;39353;42.864;12.014;2023-04-29T03:19:05;97509.67;;;21.87;52.21
52653;BME280;39353;42.864;12.014;2023-04-29T03:21:33;97510.15;;;21.86;52.20
52653;BME280;39353;42.864;12.014;2023-04-29T03:24:01;97496.91;;;21.86;52.16
52653;BME280;39353;42.864;12.014;2023-04-29T03:26:46;97489.31;;;21.86;52.25
52653;BME280;39353;42.864;12.014;2023-04-29T03:29:27;97485.49;;;21.85;52.23
52653;BME280;39353;42.864;12.014;2023-04-29T03:31:55;97482.81;;;21.85;52.17
52653;BME280;39353;42.864;12.014;2023-04-29T03:34:36;97477.82;;;21.85;52.09
52653;BME280;39353;42.864;12.014;2023-04-29T03:37:19;97477.83;;;21.85;52.27
52653;BME280;39353;42.864;12.014;2023-04-29T03:39:51;97480.07;;;21.84;52.21
52653;BME280;39353;42.864;12.014;2023-04-29T03:42:32;97476.51;;;21.84;52.12
52653;BME280;39353;42.864;12.014;2023-04-29T03:45:13;97480.08;;;21.83;52.22
52653;BME280;39353;42.864;12.014;2023-04-29T03:47:40;97484.95;;;21.83;52.15
52653;BME280;39353;42.864;12.014;2023-04-29T03:50:22;97488.45;;;21.83;52.26
52653;BME280;39353;42.864;12.014;2023-04-29T03:53:04;97486.42;;;21.83;52.24
52653;BME280;39353;42.864;12.014;2023-04-29T03:55:46;97490.34;;;21.83;52.22
52653;BME280;39353;42.864;12.014;2023-04-29T03:58:29;97491.98;;;21.83;52.10
52653;BME280;39353;42.864;12.014;2023-04-29T04:00:57;97486.19;;;21.82;52.10
52653;BME280;39353;42.864;12.014;2023-04-29T04:03:27;97487.54;;;21.82;52.12
52653;BME280;39353;42.864;12.014;2023-04-29T04:05:55;97484.44;;;21.81;52.10
52653;BME280;39353;42.864;12.014;2023-04-29T04:08:36;97488.45;;;21.80;52.03
52653;BME280;39353;42.864;12.014;2023-04-29T04:11:06;97490.27;;;21.79;51.96
52653;BME280;39353;42.864;12.014;2023-04-29T04:13:43;97479.59;;;21.79;51.77
52653;BME280;39353;42.864;12.014;2023-04-29T04:16:11;97482.48;;;21.79;52.05
52653;BME280;39353;42.864;12.014;2023-04-29T04:18:39;97483.62;;;21.79;51.88
52653;BME280;39353;42.864;12.014;2023-04-29T04:21:07;97480.61;;;21.78;52.05
52653;BME280;39353;42.864;12.014;2023-04-29T04:23:35;97478.84;;;21.78;52.18
52653;BME280;39353;42.864;12.014;2023-04-29T04:26:20;97477.42;;;21.78;52.24
52653;BME280;39353;42.864;12.014;2023-04-29T04:28:59;97469.98;;;21.77;52.23
52653;BME280;39353;42.864;12.014;2023-04-29T04:31:43;97469.04;;;21.77;52.22
52653;BME280;39353;42.864;12.014;2023-04-29T04:34:11;97469.04;;;21.77;52.16
52653;BME280;39353;42.864;12.014;2023-04-29T04:36:53;97476.39;;;21.77;52.12
52653;BME280;39353;42.864;12.014;2023-04-29T04:39:21;97475.92;;;21.77;52.26
52653;BME280;39353;42.864;12.014;2023-04-29T04:42:03;97480.96;;;21.77;52.30
52653;BME280;39353;42.864;12.014;2023-04-29T04:44:31;97479.98;;;21.78;52.26
52653;BME280;39353;42.864;12.014;2023-04-29T04:47:07;97484.02;;;21.79;52.26
52653;BME280;39353;42.864;12.014;2023-04-29T04:49:55;97484.40;;;21.79;52.12
52653;BME280;39353;42.864;12.014;2023-04-29T04:52:23;97481.69;;;21.80;52.14
52653;BME280;39353;42.864;12.014;2023-04-29T04:55:06;97481.81;;;21.80;51.99
52653;BME280;39353;42.864;12.014;2023-04-29T04:57:35;97481.36;;;21.78;51.61
52653;BME280;39353;42.864;12.014;2023-04-29T05:00:18;97475.55;;;21.77;51.51
52653;BME280;39353;42.864;12.014;2023-04-29T05:02:46;97483.45;;;21.79;51.66
52653;BME280;39353;42.864;12.014;2023-04-29T05:05:27;97484.73;;;21.81;51.85
52653;BME280;39353;42.864;12.014;2023-04-29T05:07:56;97490.10;;;21.82;51.99
52653;BME280;39353;42.864;12.014;2023-04-29T05:10:30;97496.06;;;21.82;51.93
52653;BME280;39353;42.864;12.014;2023-04-29T05:13:14;97492.59;;;21.81;51.84
52653;BME280;39353;42.864;12.014;2023-04-29T05:15:42;97489.55;;;21.82;51.90
52653;BME280;39353;42.864;12.014;2023-04-29T05:18:24;97484.88;;;21.85;52.07
52653;BME280;39353;42.864;12.014;2023-04-29T05:21:06;97480.81;;;21.89;51.75
52653;BME280;39353;42.864;12.014;2023-04-29T05:23:47;97475.87;;;21.92;51.60
52653;BME280;39353;42.864;12.014;2023-04-29T05:26:28;97472.13;;;21.95;51.86
52653;BME280;39353;42.864;12.014;2023-04-29T05:28:58;97464.29;;;21.98;52.03
52653;BME280;39353;42.864;12.014;2023-04-29T05:31:41;97464.31;;;22.02;51.94
52653;BME280;39353;42.864;12.014;2023-04-29T05:34:22;97464.16;;;22.04;51.92
52653;BME280;39353;42.864;12.014;2023-04-29T05:36:49;97467.95;;;22.07;51.89
52653;BME280;39353;42.864;12.014;2023-04-29T05:39:30;97465.52;;;22.10;51.96
52653;BME280;39353;42.864;12.014;2023-04-29T05:42:19;97467.38;;;22.15;51.76
52653;BME280;39353;42.864;12.014;2023-04-29T05:44:50;97468.30;;;22.19;51.91
52653;BME280;39353;42.864;12.014;2023-04-29T05:47:31;97473.58;;;22.20;52.11
52653;BME280;39353;42.864;12.014;2023-04-29T05:49:58;97477.26;;;22.21;51.88
52653;BME280;39353;42.864;12.014;2023-04-29T05:52:26;97479.99;;;22.21;51.92
52653;BME280;39353;42.864;12.014;2023-04-29T05:54:54;97477.14;;;22.21;51.67
52653;BME280;39353;42.864;12.014;2023-04-29T05:57:35;97478.85;;;22.19;51.29
52653;BME280;39353;42.864;12.014;2023-04-29T06:00:18;97476.80;;;22.18;51.27
52653;BME280;39353;42.864;12.014;2023-04-29T06:02:59;97476.73;;;22.17;51.30
52653;BME280;39353;42.864;12.014;2023-04-29T06:05:41;97471.89;;;22.16;51.22
52653;BME280;39353;42.864;12.014;2023-04-29T06:08:42;97478.84;;;22.16;51.32
52653;BME280;39353;42.864;12.014;2023-04-29T06:11:34;97482.45;;;22.17;51.27
52653;BME280;39353;42.864;12.014;2023-04-29T06:14:02;97487.64;;;22.16;51.08
52653;BME280;39353;42.864;12.014;2023-04-29T06:16:31;97492.51;;;22.19;51.03
52653;BME280;39353;42.864;12.014;2023-04-29T06:19:13;97496.75;;;22.23;51.11
52653;BME280;39353;42.864;12.014;2023-04-29T06:21:41;97501.58;;;22.26;51.22
52653;BME280;39353;42.864;12.014;2023-04-29T06:24:08;97498.94;;;22.29;51.19
52653;BME280;39353;42.864;12.014;2023-04-29T06:26:36;97498.66;;;22.29;50.50
52653;BME280;39353;42.864;12.014;2023-04-29T06:29:05;97493.11;;;22.24;49.70
52653;BME280;39353;42.864;12.014;2023-04-29T06:31:48;97488.46;;;22.23;50.31
52653;BME280;39353;42.864;12.014;2023-04-29T06:34:29;97488.14;;;22.22;50.39
52653;BME280;39353;42.864;12.014;2023-04-29T06:37:15;97484.70;;;22.19;50.59
52653;BME280;39353;42.864;12.014;2023-04-29T06:40:06;97488.73;;;22.18;50.67
52653;BME280;39353;42.864;12.014;2023-04-29T06:42:44;97497.86;;;22.18;50.67
52653;BME280;39353;42.864;12.014;2023-04-29T06:45:31;97504.23;;;22.18;50.61
52653;BME280;39353;42.864;12.014;2023-04-29T06:48:17;97512.73;;;22.19;50.56
52653;BME280;39353;42.864;12.014;2023-04-29T06:51:04;97512.00;;;22.21;50.55
52653;BME280;39353;42.864;12.014;2023-04-29T06:53:49;97507.20;;;22.21;50.63
52653;BME280;39353;42.864;12.014;2023-04-29T06:56:30;97501.40;;;22.21;50.68
52653;BME280;39353;42.864;12.014;2023-04-29T06:58:57;97495.27;;;22.20;50.52
52653;BME280;39353;42.864;12.014;2023-04-29T07:01:38;97489.80;;;22.20;50.56
52653;BME280;39353;42.864;12.014;2023-04-29T07:04:06;97491.21;;;22.22;50.58
52653;BME280;39353;42.864;12.014;2023-04-29T07:06:33;97488.31;;;22.22;50.63
52653;BME280;39353;42.864;12.014;2023-04-29T07:09:13;97485.29;;;22.21;50.52
52653;BME280;39353;42.864;12.014;2023-04-29T07:11:41;97484.37;;;22.21;50.58
52653;BME280;39353;42.864;12.014;2023-04-29T07:14:22;97480.54;;;22.21;50.56
52653;BME280;39353;42.864;12.014;2023-04-29T07:17:03;97482.11;;;22.21;50.42
52653;BME280;39353;42.864;12.014;2023-04-29T07:19:46;97480.85;;;22.20;50.45
52653;BME280;39353;42.864;12.014;2023-04-29T07:22:27;97487.28;;;22.20;50.19
52653;BME280;39353;42.864;12.014;2023-04-29T07:24:54;97493.82;;;22.19;50.20
52653;BME280;39353;42.864;12.014;2023-04-29T07:27:22;97495.40;;;22.17;50.12
52653;BME280;39353;42.864;12.014;2023-04-29T07:29:52;97492.65;;;22.16;50.26
52653;BME280;39353;42.864;12.014;2023-04-29T07:32:20;97494.00;;;22.15;50.17
52653;BME280;39353;42.864;12.014;2023-04-29T07:34:47;97501.21;;;22.15;50.17
52653;BME280;39353;42.864;12.014;2023-04-29T07:37:15;97503.02;;;22.15;50.26
52653;BME280;39353;42.864;12.014;2023-04-29T07:39:43;97499.16;;;22.16;50.35
52653;BME280;39353;42.864;12.014;2023-04-29T07:42:11;97500.32;;;22.16;50.17
52653;BME280;39353;42.864;12.014;2023-04-29T07:44:38;97496.14;;;22.15;50.32
52653;BME280;39353;42.864;12.014;2023-04-29T07:47:05;97491.61;;;22.14;50.31
52653;BME280;39353;42.864;12.014;2023-04-29T07:49:33;97493.80;;;22.14;50.27
52653;BME280;39353;42.864;12.014;2023-04-29T07:52:03;97496.77;;;22.12;50.37
52653;BME280;39353;42.864;12.014;2023-04-29T07:54:35;97497.41;;;22.12;50.14
52653;BME280;39353;42.864;12.014;2023-04-29T07:57:03;97497.23;;;22.11;50.28
52653;BME280;39353;42.864;12.014;2023-04-29T07:59:31;97494.42;;;22.10;50.42
52653;BME280;39353;42.864;12.014;2023-04-29T08:02:12;97485.63;;;22.08;50.17
52653;BME280;39353;42.864;12.014;2023-04-29T08:04:54;97477.56;;;22.08;50.32
52653;BME280;39353;42.864;12.014;2023-04-29T08:07:22;97477.14;;;22.07;50.29
52653;BME280;39353;42.864;12.014;2023-04-29T08:09:50;97479.83;;;22.08;50.02
52653;BME280;39353;42.864;12.014;2023-04-29T08:12:32;97486.62;;;22.06;50.02
52653;BME280;39353;42.864;12.014;2023-04-29T08:15:01;97488.90;;;22.06;50.12
52653;BME280;39353;42.864;12.014;2023-04-29T08:17:42;97479.48;;;22.05;49.92
52653;BME280;39353;42.864;12.014;2023-04-29T08:20:10;97478.61;;;22.05;49.97
52653;BME280;39353;42.864;12.014;2023-04-29T08:22:37;97477.63;;;22.06;49.83
52653;BME280;39353;42.864;12.014;2023-04-29T08:25:18;97486.52;;;22.04;49.76
52653;BME280;39353;42.864;12.014;2023-04-29T08:27:45;97486.64;;;22.05;49.72
52653;BME280;39353;42.864;12.014;2023-04-29T08:30:15;97487.27;;;22.06;49.83
52653;BME280;39353;42.864;12.014;2023-04-29T08:32:45;97479.23;;;22.06;49.58
52653;BME280;39353;42.864;12.014;2023-04-29T08:35:26;97481.16;;;22.06;49.55
52653;BME280;39353;42.864;12.014;2023-04-29T08:38:09;97483.07;;;22.04;49.59
52653;BME280;39353;42.864;12.014;2023-04-29T08:40:44;97482.39;;;22.03;49.55
52653;BME280;39353;42.864;12.014;2023-04-29T08:43:15;97495.52;;;22.02;49.51
52653;BME280;39353;42.864;12.014;2023-04-29T08:45:57;97496.77;;;21.99;49.64
52653;BME280;39353;42.864;12.014;2023-04-29T08:48:26;97497.63;;;21.98;49.52
52653;BME280;39353;42.864;12.014;2023-04-29T08:50:55;97493.33;;;21.97;49.63
52653;BME280;39353;42.864;12.014;2023-04-29T08:53:24;97496.34;;;21.95;49.77
52653;BME280;39353;42.864;12.014;2023-04-29T08:55:54;97513.23;;;21.94;49.79
52653;BME280;39353;42.864;12.014;2023-04-29T08:58:24;97523.63;;;21.94;49.84
52653;BME280;39353;42.864;12.014;2023-04-29T09:00:52;97528.06;;;21.92;49.91
52653;BME280;39353;42.864;12.014;2023-04-29T09:03:30;97530.55;;;21.92;49.88
52653;BME280;39353;42.864;12.014;2023-04-29T09:06:14;97530.02;;;21.90;49.97
52653;BME280;39353;42.864;12.014;2023-04-29T09:08:58;97528.17;;;21.90;49.87
52653;BME280;39353;42.864;12.014;2023-04-29T09:11:39;97524.48;;;21.89;50.12
52653;BME280;39353;42.864;12.014;2023-04-29T09:14:22;97535.20;;;21.90;50.00
52653;BME280;39353;42.864;12.014;2023-04-29T09:16:51;97541.30;;;21.89;49.96
52653;BME280;39353;42.864;12.014;2023-04-29T09:19:30;97535.41;;;21.89;50.04
52653;BME280;39353;42.864;12.014;2023-04-29T09:22:11;97536.19;;;21.88;50.12
52653;BME280;39353;42.864;12.014;2023-04-29T09:24:54;97538.23;;;21.86;50.18
52653;BME280;39353;42.864;12.014;2023-04-29T09:27:27;97531.91;;;21.87;50.13
52653;BME280;39353;42.864;12.014;2023-04-29T09:30:09;97523.66;;;21.87;50.13
52653;BME280;39353;42.864;12.014;2023-04-29T09:33:06;97519.68;;;21.87;50.07
52653;BME280;39353;42.864;12.014;2023-04-29T09:35:35;97527.16;;;21.87;50.06
52653;BME280;39353;42.864;12.014;2023-04-29T09:38:15;97536.70;;;21.86;50.20
52653;BME280;39353;42.864;12.014;2023-04-29T09:40:43;97544.66;;;21.88;50.07
52653;BME280;39353;42.864;12.014;2023-04-29T09:43:16;97549.02;;;21.88;50.07
52653;BME280;39353;42.864;12.014;2023-04-29T09:45:58;97543.84;;;21.88;50.31
52653;BME280;39353;42.864;12.014;2023-04-29T09:48:30;97538.04;;;21.87;50.36
52653;BME280;39353;42.864;12.014;2023-04-29T09:51:13;97537.45;;;21.88;50.39
52653;BME280;39353;42.864;12.014;2023-04-29T09:53:41;97537.91;;;21.87;50.23
52653;BME280;39353;42.864;12.014;2023-04-29T09:56:23;97535.56;;;21.87;50.28
52653;BME280;39353;42.864;12.014;2023-04-29T09:58:55;97529.02;;;21.85;50.23
52653;BME280;39353;42.864;12.014;2023-04-29T10:01:26;97524.33;;;21.85;50.19
52653;BME280;39353;42.864;12.014;2023-04-29T10:04:03;97516.77;;;21.87;50.17
52653;BME280;39353;42.864;12.014;2023-04-29T10:06:32;97519.41;;;21.88;50.29
52653;BME280;39353;42.864;12.014;2023-04-29T10:09:15;97511.73;;;21.88;50.04
52653;BME280;39353;42.864;12.014;2023-04-29T10:11:49;97507.48;;;21.88;50.04
52653;BME280;39353;42.864;12.014;2023-04-29T10:14:19;97505.77;;;21.88;50.09
52653;BME280;39353;42.864;12.014;2023-04-29T10:17:09;97494.23;;;21.88;50.05
52653;BME280;39353;42.864;12.014;2023-04-29T10:19:49;97465.98;;;21.88;49.97
52653;BME280;39353;42.864;12.014;2023-04-29T10:22:45;97458.83;;;21.87;49.87
52653;BME280;39353;42.864;12.014;2023-04-29T10:25:20;97459.05;;;21.87;49.89
52653;BME280;39353;42.864;12.014;2023-04-29T10:28:08;97466.90;;;21.87;49.91
52653;BME280;39353;42.864;12.014;2023-04-29T10:30:57;97477.92;;;21.86;49.91
52653;BME280;39353;42.864;12.014;2023-04-29T10:33:30;97487.84;;;21.86;50.01
52653;BME280;39353;42.864;12.014;2023-04-29T10:36:14;97489.54;;;21.83;47.56
52653;BME280;39353;42.864;12.014;2023-04-29T10:38:46;97492.05;;;21.77;46.65
52653;BME280;39353;42.864;12.014;2023-04-29T10:41:36;97493.37;;;21.79;47.67
52653;BME280;39353;42.864;12.014;2023-04-29T10:44:09;97502.44;;;21.83;48.17
52653;BME280;39353;42.864;12.014;2023-04-29T10:47:20;97511.70;;;21.85;48.12
52653;BME280;39353;42.864;12.014;2023-04-29T10:50:02;97508.85;;;21.89;48.39
52653;BME280;39353;42.864;12.014;2023-04-29T10:52:54;97503.30;;;21.92;48.49
52653;BME280;39353;42.864;12.014;2023-04-29T10:55:24;97504.59;;;21.93;48.32
52653;BME280;39353;42.864;12.014;2023-04-29T10:58:35;97509.30;;;21.94;48.04
52653;BME280;39353;42.864;12.014;2023-04-29T11:01:04;97507.23;;;21.94;47.67
52653;BME280;39353;42.864;12.014;2023-04-29T11:03:53;97509.13;;;21.96;47.76
52653;BME280;39353;42.864;12.014;2023-04-29T11:12:01;97503.11;;;21.99;48.26
52653;BME280;39353;42.864;12.014;2023-04-29T11:14:49;97500.14;;;22.01;48.64
52653;BME280;39353;42.864;12.014;2023-04-29T11:17:18;97500.59;;;22.06;48.72
52653;BME280;39353;42.864;12.014;2023-04-29T11:19:49;97501.48;;;22.13;49.00
52653;BME280;39353;42.864;12.014;2023-04-29T11:22:31;97502.27;;;22.18;49.03
52653;BME280;39353;42.864;12.014;2023-04-29T11:25:13;97502.70;;;22.24;48.98
52653;BME280;39353;42.864;12.014;2023-04-29T11:27:56;97502.93;;;22.30;49.15
52653;BME280;39353;42.864;12.014;2023-04-29T11:30:27;97505.98;;;22.33;49.09
52653;BME280;39353;42.864;12.014;2023-04-29T11:32:58;97508.30;;;22.36;49.14
52653;BME280;39353;42.864;12.014;2023-04-29T11:35:25;97504.48;;;22.40;49.12
52653;BME280;39353;42.864;12.014;2023-04-29T11:37:52;97502.09;;;22.45;48.87
52653;BME280;39353;42.864;12.014;2023-04-29T11:40:34;97496.40;;;22.50;48.98
52653;BME280;39353;42.864;12.014;2023-04-29T11:43:18;97483.98;;;22.55;48.79
52653;BME280;39353;42.864;12.014;2023-04-29T11:46:02;97483.64;;;22.61;48.73
52653;BME280;39353;42.864;12.014;2023-04-29T11:48:29;97479.92;;;22.66;48.69
52653;BME280;39353;42.864;12.014;2023-04-29T11:50:58;97476.86;;;22.71;48.47
52653;BME280;39353;42.864;12.014;2023-04-29T11:53:26;97469.29;;;22.77;48.58
52653;BME280;39353;42.864;12.014;2023-04-29T11:56:10;97470.33;;;22.87;48.32
52653;BME280;39353;42.864;12.014;2023-04-29T11:58:56;97465.10;;;22.91;48.07
52653;BME280;39353;42.864;12.014;2023-04-29T12:01:38;97459.96;;;22.97;47.99
52653;BME280;39353;42.864;12.014;2023-04-29T12:04:05;97454.69;;;23.00;47.88
52653;BME280;39353;42.864;12.014;2023-04-29T12:06:33;97447.90;;;23.05;47.85
52653;BME280;39353;42.864;12.014;2023-04-29T12:09:16;97445.57;;;23.10;47.68
52653;BME280;39353;42.864;12.014;2023-04-29T12:11:45;97441.36;;;23.13;47.68
52653;BME280;39353;42.864;12.014;2023-04-29T12:14:20;97440.48;;;23.15;47.66
52653;BME280;39353;42.864;12.014;2023-04-29T12:16:47;97444.01;;;23.16;47.76
52653;BME280;39353;42.864;12.014;2023-04-29T12:19:16;97446.98;;;23.17;47.57
52653;BME280;39353;42.864;12.014;2023-04-29T12:21:47;97452.03;;;23.19;47.60
52653;BME280;39353;42.864;12.014;2023-04-29T12:24:33;97451.89;;;23.21;47.57
52653;BME280;39353;42.864;12.014;2023-04-29T12:36:18;97452.84;;;23.43;47.19
52653;BME280;39353;42.864;12.014;2023-04-29T12:39:00;97448.44;;;23.45;47.14
52653;BME280;39353;42.864;12.014;2023-04-29T12:41:37;97449.95;;;23.50;47.09
52653;BME280;39353;42.864;12.014;2023-04-29T12:44:07;97453.45;;;23.55;47.04
52653;BME280;39353;42.864;12.014;2023-04-29T12:46:51;97447.52;;;23.58;47.02
52653;BME280;39353;42.864;12.014;2023-04-29T12:49:19;97449.15;;;23.60;47.19
52653;BME280;39353;42.864;12.014;2023-04-29T12:51:47;97440.15;;;23.62;47.28
52653;BME280;39353;42.864;12.014;2023-04-29T12:54:15;97430.55;;;23.64;47.57
52653;BME280;39353;42.864;12.014;2023-04-29T12:56:42;97427.16;;;23.64;47.74
52653;BME280;39353;42.864;12.014;2023-04-29T12:59:10;97427.70;;;23.67;48.07
52653;BME280;39353;42.864;12.014;2023-04-29T13:01:52;97428.54;;;23.68;48.44
52653;BME280;39353;42.864;12.014;2023-04-29T13:04:19;97432.52;;;23.71;48.82
52653;BME280;39353;42.864;12.014;2023-04-29T13:07:00;97428.52;;;23.71;49.11
52653;BME280;39353;42.864;12.014;2023-04-29T13:09:42;97431.14;;;23.71;49.41
52653;BME280;39353;42.864;12.014;2023-04-29T13:12:23;97425.94;;;23.70;49.70
52653;BME280;39353;42.864;12.014;2023-04-29T13:15:05;97424.61;;;23.69;49.70
52653;BME280;39353;42.864;12.014;2023-04-29T13:17:36;97421.90;;;23.68;49.71
52653;BME280;39353;42.864;12.014;2023-04-29T13:20:04;97422.72;;;23.67;49.80
52653;BME280;39353;42.864;12.014;2023-04-29T13:22:52;97420.57;;;23.67;49.90
52653;BME280;39353;42.864;12.014;2023-04-29T13:25:33;97425.01;;;23.66;49.84
52653;BME280;39353;42.864;12.014;2023-04-29T13:28:00;97418.58;;;23.65;49.48
52653;BME280;39353;42.864;12.014;2023-04-29T13:30:42;97412.54;;;23.64;49.53
52653;BME280;39353;42.864;12.014;2023-04-29T13:33:10;97403.55;;;23.65;49.19
52653;BME280;39353;42.864;12.014;2023-04-29T13:35:39;97398.23;;;23.65;49.04
52653;BME280;39353;42.864;12.014;2023-04-29T13:38:21;97395.21;;;23.67;48.84
52653;BME280;39353;42.864;12.014;2023-04-29T13:40:50;97390.39;;;23.67;48.80
52653;BME280;39353;42.864;12.014;2023-04-29T13:43:20;97384.15;;;23.67;48.79
52653;BME280;39353;42.864;12.014;2023-04-29T13:45:47;97383.81;;;23.66;48.47
52653;BME280;39353;42.864;12.014;2023-04-29T13:48:16;97374.00;;;23.66;48.33
52653;BME280;39353;42.864;12.014;2023-04-29T13:50:57;97362.52;;;23.67;48.17
52653;BME280;39353;42.864;12.014;2023-04-29T13:53:39;97355.77;;;23.67;48.11
52653;BME280;39353;42.864;12.014;2023-04-29T13:56:21;97354.54;;;23.69;48.10
52653;BME280;39353;42.864;12.014;2023-04-29T13:59:02;97351.92;;;23.70;48.05
52653;BME280;39353;42.864;12.014;2023-04-29T14:01:43;97350.34;;;23.71;48.08
52653;BME280;39353;42.864;12.014;2023-04-29T14:04:11;97347.73;;;23.71;47.58
52653;BME280;39353;42.864;12.014;2023-04-29T14:06:55;97339.48;;;23.60;46.25
52653;BME280;39353;42.864;12.014;2023-04-29T14:09:22;97330.58;;;23.57;47.03